This is the latest recevied weather packets stored in our database for station/object EC2UT-13. If no packets are shown the sender has not sent any weather packets the latest 10 day(s).
| Time | Temp. | Humidity | Pressure | Rain* | Wind** | Luminosity | Snow |
|---|---|---|---|---|---|---|---|
| 1777445417 | 15.56° C | 58% | 1011.6 hPa | 0.25 mm | - | - | - |
| 1777444818 | 15.56° C | 59% | 1011.7 hPa | 0.25 mm | - | - | - |
| 1777443617 | 15.56° C | 59% | 1011.3 hPa | 0.25 mm | - | - | - |
| 1777437017 | 15.56° C | 56% | 1011 hPa | 0 mm | - | - | - |
| 1777423817 | 16.67° C | 52% | 1011.7 hPa | 0 mm | - | - | - |
| 1777420816 | 17.22° C | 51% | 1011.5 hPa | 0 mm | - | - | - |
| 1777415416 | 18.89° C | 42% | 1011.1 hPa | 0 mm | - | - | - |
| 1777413018 | 18.89° C | 42% | 1010.5 hPa | 0 mm | - | - | - |
| 1777404018 | 21.67° C | 31% | 1009.4 hPa | 0 mm | - | - | - |
| 1777403418 | 22.22° C | 31% | 1009.3 hPa | 0 mm | - | - | - |
| 1777401618 | 22.78° C | 30% | 1009 hPa | 0 mm | - | - | - |
| 1777400418 | 23.33° C | 28% | 1008.6 hPa | 0 mm | - | - | - |
| 1777398618 | 24.44° C | 29% | 1008.5 hPa | 0 mm | - | - | - |
| 1777394418 | 26.11° C | 21% | 1008.6 hPa | 0 mm | - | - | - |
| 1777393818 | 26.67° C | 22% | 1008.8 hPa | 0 mm | - | - | - |
| 1777393218 | 26.67° C | 22% | 1008.7 hPa | 0 mm | - | - | - |
| 1777392017 | 27.22° C | 20% | 1008.8 hPa | 0 mm | - | - | - |
| 1777388418 | 27.22° C | 16% | 1009.8 hPa | 0 mm | - | - | - |
| 1777381818 | 25.56° C | 23% | 1012 hPa | 0 mm | - | - | - |
| 1777378818 | 23.89° C | 21% | 1012.6 hPa | 0 mm | - | - | - |
| 1777378217 | 23.33° C | 24% | 1012.7 hPa | 0 mm | - | - | - |
| 1777373417 | 21.11° C | 33% | 1014.1 hPa | 0 mm | - | - | - |
| 1777372817 | 20.56° C | 32% | 1014.1 hPa | 0 mm | - | - | - |
| 1777369217 | 19.44° C | 30% | 1014.8 hPa | 0 mm | - | - | - |
| 1777365617 | 17.78° C | 33% | 1015.2 hPa | 0 mm | - | - | - |
* Rain latest hour (hover to see other rain measurements)
** Current wind speed in m/s (hover to see current wind gust speed)